CheckWX is a tool to help pilots better visualize weather data.  It is not intended as a substitute for an official pre-flight weather briefing.

12:05:03 UTC

SLTR METAR
Teniente Av. Jorge Henrich Arauz Airport
Trinidad, Bolivia
Current

1 hour ago

SLTR 201100Z 15003KT 5000 FU NSC 19/12 Q1017
Observed
Aug-20 @ 11:00 UTC
Wind
  • 150° at 3 KTS
Visibility
5,000 meters
Flight Rules
MVFR
Conditions
Smoke
Cloud Levels
  • Clear skies
Temperature
19°C / 66°F
Dewpoint
12°C / 54°F
Humidity
64%
Altimeter
30.03" Hg
Pressure
1016.92 hPa
Previous

2 hours ago

SLTR 201000Z 15003KT 5000 FU NSC 19/14 Q1016
Observed
Aug-20 @ 10:00 UTC
Wind
  • 150° at 3 KTS
Visibility
5,000 meters
Flight Rules
MVFR
Conditions
Smoke
Cloud Levels
  • Clear skies
Temperature
19°C / 66°F
Dewpoint
14°C / 57°F
Humidity
73%
Altimeter
30" Hg
Pressure
1015.92 hPa
Previous

3 hours ago

SLTR 200900Z 15003KT 5000 FU NSC 20/16 Q1016
Observed
Aug-20 @ 09:00 UTC
Wind
  • 150° at 3 KTS
Visibility
5,000 meters
Flight Rules
MVFR
Conditions
Smoke
Cloud Levels
  • Clear skies
Temperature
20°C / 68°F
Dewpoint
16°C / 61°F
Humidity
78%
Altimeter
30" Hg
Pressure
1015.92 hPa